Time;durP1;ratioP1;P1;durP2;ratioP2;P2;SDS_P1;SDS_P2;PMS_P1;PMS_P2;Temp;Humidity;BMP_temperature;BMP_pressure;BME280_temperature;BME280_humidity;BME280_pressure;Samples;Min_cycle;Max_cycle;Signal;HPM_P1;HPM_P2
2021/11/03 00:11:06;;;;;;;27.27;21.63;;;23.10;55.60;;;;;;31385417;28;20053;-37
2021/11/03 00:26:08;;;;;;;24.15;19.80;;;23.00;56.00;;;;;;31382380;28;20045;-38
2021/11/03 00:41:10;;;;;;;20.42;18.25;;;23.00;56.50;;;;;;31381906;28;20099;-43
2021/11/03 00:56:12;;;;;;;19.05;15.93;;;22.90;57.10;;;;;;31380194;28;20045;-43
2021/11/03 01:11:14;;;;;;;16.42;13.57;;;22.90;58.60;;;;;;31377703;28;20128;-42
2021/11/03 01:26:35;;;;;;;14.30;12.45;;;22.50;60.20;;;;;;31256566;28;20049;-42
2021/11/03 01:41:38;;;;;;;14.70;11.50;;;23.00;58.80;;;;;;31374592;28;20129;-46
2021/11/03 01:56:41;;;;;;;16.85;10.77;;;23.20;59.00;;;;;;31372762;28;20038;-46
2021/11/03 02:11:43;;;;;;;11.35;10.05;;;23.20;59.10;;;;;;31371744;28;20056;-42
2021/11/03 02:26:49;;;;;;;11.23;9.65;;;23.20;59.20;;;;;;31369891;28;20132;-43
2021/11/03 02:41:52;;;;;;;10.98;9.65;;;23.00;59.60;;;;;;31376736;28;20084;-42
2021/11/03 02:56:54;;;;;;;11.32;9.02;;;23.00;59.90;;;;;;31393571;28;20426;-43
2021/11/03 03:12:00;;;;;;;10.60;9.20;;;22.90;60.10;;;;;;31392497;28;20109;-45
2021/11/03 03:27:03;;;;;;;9.77;8.68;;;22.70;60.40;;;;;;31390321;28;20049;-43
2021/11/03 03:42:11;;;;;;;9.90;8.57;;;22.60;60.80;;;;;;31388953;28;20057;-41
2021/11/03 03:57:13;;;;;;;12.63;9.07;;;22.50;61.20;;;;;;31416879;28;20041;-42
2021/11/03 04:12:15;;;;;;;8.98;7.63;;;22.70;60.90;;;;;;31384640;28;20069;-42
2021/11/03 04:27:18;;;;;;;8.40;7.22;;;23.10;60.60;;;;;;31381668;28;20053;-42
2021/11/03 04:42:20;;;;;;;7.57;6.63;;;23.20;60.60;;;;;;31396182;28;20050;-45
2021/11/03 04:57:22;;;;;;;15.88;7.18;;;23.30;60.60;;;;;;31435148;28;20138;-47
2021/11/03 05:12:24;;;;;;;22.17;15.30;;;23.20;61.80;;;;;;31385336;28;20905;-40
2021/11/03 05:27:26;;;;;;;25.45;18.38;;;22.80;55.60;;;;;;31375951;28;20045;-36
2021/11/03 05:42:28;;;;;;;54.22;23.52;;;22.80;55.30;;;;;;31365806;28;20092;-35
2021/11/03 05:57:34;;;;;;;64.45;34.80;;;22.70;58.90;;;;;;31371145;28;20073;-45
2021/11/03 06:12:36;;;;;;;44.42;29.10;;;22.20;58.90;;;;;;31368024;28;20100;-48
2021/11/03 06:27:39;;;;;;;41.10;25.50;;;23.00;56.30;;;;;;31369171;28;20108;-48
2021/11/03 06:42:41;;;;;;;64.28;42.55;;;23.30;56.20;;;;;;31368652;28;20109;-37
2021/11/03 06:57:43;;;;;;;51.95;37.33;;;23.10;56.20;;;;;;31366434;28;20101;-38
2021/11/03 07:12:46;;;;;;;48.63;37.20;;;23.00;56.00;;;;;;31348283;28;20117;-43
2021/11/03 07:27:51;;;;;;;147.55;105.47;;;22.40;56.90;;;;;;31373433;28;20155;-41
2021/11/03 07:42:57;;;;;;;89.85;69.70;;;21.90;57.80;;;;;;31388782;28;20101;-37
2021/11/03 07:58:00;;;;;;;56.70;44.10;;;22.10;57.50;;;;;;31385380;28;20042;-36
2021/11/03 08:13:03;;;;;;;36.20;27.33;;;22.40;55.40;;;;;;31383961;28;20084;-36
2021/11/03 08:28:07;;;;;;;33.28;26.75;;;22.80;53.00;;;;;;31373173;28;20101;-36
2021/11/03 08:43:10;;;;;;;30.65;23.98;;;23.20;54.60;;;;;;31372493;28;20064;-36
2021/11/03 08:58:14;;;;;;;30.48;25.42;;;23.20;55.20;;;;;;31370643;28;20049;-37
2021/11/03 09:13:22;;;;;;;33.70;26.50;;;23.30;55.60;;;;;;31018969;28;9999802;-37
2021/11/03 09:28:26;;;;;;;58.58;45.75;;;23.30;55.90;;;;;;31378878;28;20033;-43
2021/11/03 09:43:45;;;;;;;58.88;43.30;;;23.00;54.50;;;;;;31376687;28;20789;-45
2021/11/03 09:58:58;;;;;;;47.50;37.83;;;22.90;55.80;;;;;;31360571;28;20072;-39
2021/11/03 10:14:01;;;;;;;37.40;31.17;;;22.60;56.40;;;;;;31361774;28;20048;-36
2021/11/03 10:29:09;;;;;;;35.22;29.15;;;22.70;55.70;;;;;;31360660;28;20093;-46
2021/11/03 10:44:25;;;;;;;39.20;27.52;;;22.60;56.10;;;;;;31358242;28;20077;-39
2021/11/03 10:59:30;;;;;;;27.60;23.05;;;22.50;56.60;;;;;;31360375;28;20045;-37
2021/11/03 11:14:33;;;;;;;26.77;21.90;;;22.60;56.50;;;;;;31378390;28;20088;-39
2021/11/03 11:29:50;;;;;;;24.67;20.38;;;22.60;56.40;;;;;;31382789;28;20064;-36
2021/11/03 11:44:58;;;;;;;22.42;18.23;;;22.60;56.30;;;;;;31380991;28;20054;-35
2021/11/03 12:00:16;;;;;;;21.73;16.95;;;22.60;56.50;;;;;;31380401;28;20140;-39
2021/11/03 12:15:50;;;;;;;18.92;15.90;;;22.40;57.00;;;;;;31381945;28;20064;-38
2021/11/03 12:31:39;;;;;;;17.83;15.25;;;22.40;57.60;;;;;;31380506;28;20061;-37
2021/11/03 12:46:41;;;;;;;16.98;14.23;;;22.30;57.60;;;;;;31375968;28;20058;-37
2021/11/03 13:01:51;;;;;;;14.10;12.48;;;22.40;57.50;;;;;;31420076;28;20541;-37
2021/11/03 13:16:55;;;;;;;14.82;11.35;;;23.00;57.10;;;;;;31374017;28;20049;-45
2021/11/03 13:32:33;;;;;;;22.42;12.10;;;23.20;56.90;;;;;;31418168;28;20064;-46
2021/11/03 13:47:36;;;;;;;13.38;9.40;;;23.30;57.30;;;;;;31376174;28;20072;-48
2021/11/03 14:02:38;;;;;;;21.40;10.48;;;23.30;56.90;;;;;;31369392;28;20042;-35
2021/11/03 14:17:42;;;;;;;17.77;11.32;;;23.20;57.70;;;;;;31367397;28;20049;-36
2021/11/03 14:32:46;;;;;;;17.85;14.07;;;23.00;58.10;;;;;;31369324;28;20046;-36
2021/11/03 14:47:49;;;;;;;21.67;13.95;;;22.90;57.90;;;;;;31398738;28;20088;-36
2021/11/03 15:02:57;;;;;;;20.40;14.60;;;22.90;57.60;;;;;;31454453;28;20606;-37
2021/11/03 15:17:59;;;;;;;32.17;14.32;;;22.80;57.00;;;;;;31390716;28;20053;-36
2021/11/03 15:33:01;;;;;;;20.40;12.63;;;22.70;56.70;;;;;;31381431;28;20084;-37
2021/11/03 15:48:06;;;;;;;24.63;12.95;;;22.70;57.40;;;;;;31379011;28;20045;-37
2021/11/03 16:03:44;;;;;;;17.52;12.25;;;22.70;57.50;;;;;;31385220;28;20052;-36
2021/11/03 16:18:59;;;;;;;15.93;11.37;;;22.60;57.60;;;;;;31382888;28;20053;-36
2021/11/03 16:34:01;;;;;;;14.35;9.80;;;22.80;57.30;;;;;;31382642;28;20160;-38
2021/11/03 16:49:03;;;;;;;11.25;8.60;;;23.20;56.80;;;;;;31379434;28;20077;-38
2021/11/03 17:04:08;;;;;;;11.48;8.50;;;23.30;56.80;;;;;;31377714;28;20065;-37
2021/11/03 17:19:11;;;;;;;11.98;8.93;;;23.20;56.90;;;;;;31375531;28;20081;-37
2021/11/03 17:34:14;;;;;;;22.90;9.35;;;23.10;56.90;;;;;;31373799;28;20073;-40
2021/11/03 17:49:29;;;;;;;15.40;10.07;;;23.10;57.20;;;;;;31374948;28;20132;-43
2021/11/03 18:04:31;;;;;;;28.90;10.20;;;23.00;57.90;;;;;;31038837;28;10000648;-38
2021/11/03 18:19:36;;;;;;;17.00;10.05;;;23.00;58.90;;;;;;31360301;28;20069;-38
2021/11/03 18:34:42;;;;;;;27.83;10.85;;;23.00;59.40;;;;;;31359581;28;20045;-49
2021/11/03 18:49:45;;;;;;;22.48;9.77;;;22.90;60.10;;;;;;31307946;28;20087;-36
2021/11/03 19:04:47;;;;;;;12.40;8.98;;;23.00;59.90;;;;;;31249764;28;20042;-48
2021/11/03 19:19:50;;;;;;;14.90;8.15;;;23.00;60.10;;;;;;31359989;28;20045;-37
2021/11/03 19:34:59;;;;;;;11.98;8.55;;;23.10;59.90;;;;;;31378565;28;20050;-40
2021/11/03 19:50:03;;;;;;;9.55;6.97;;;23.10;60.10;;;;;;31388138;28;20041;-37
2021/11/03 20:05:06;;;;;;;14.15;7.20;;;23.20;60.70;;;;;;31418974;28;20064;-38
2021/11/03 20:20:17;;;;;;;12.35;6.30;;;23.30;60.50;;;;;;31478797;28;20075;-46
2021/11/03 20:35:41;;;;;;;8.52;6.57;;;23.30;60.90;;;;;;31505496;28;20056;-37
2021/11/03 20:50:47;;;;;;;8.65;5.30;;;23.30;60.90;;;;;;31442760;28;20049;-37
2021/11/03 21:05:50;;;;;;;13.95;6.03;;;23.30;61.20;;;;;;31450789;28;20054;-38
2021/11/03 21:20:55;;;;;;;8.10;5.50;;;22.90;61.60;;;;;;31376367;28;20076;-37
2021/11/03 21:35:59;;;;;;;26.20;21.02;;;23.20;60.70;;;;;;31392450;28;20104;-38
2021/11/03 21:51:02;;;;;;;6.40;5.03;;;23.00;60.50;;;;;;31376511;28;20048;-45
2021/11/03 22:06:04;;;;;;;3.05;2.58;;;23.20;60.30;;;;;;31378476;28;20129;-43
2021/11/03 22:21:07;;;;;;;1.75;1.45;;;23.30;60.10;;;;;;31371755;28;20049;-44
2021/11/03 22:36:09;;;;;;;19.95;10.18;;;23.30;60.00;;;;;;31460746;28;20560;-43
2021/11/03 22:51:11;;;;;;;6.82;3.20;;;23.10;59.90;;;;;;31325073;28;20100;-36
2021/11/03 23:06:13;;;;;;;3.28;2.50;;;23.20;59.90;;;;;;31389901;28;20101;-36
2021/11/03 23:21:16;;;;;;;1.80;1.30;;;23.10;60.10;;;;;;31393407;28;20091;-36
2021/11/03 23:36:18;;;;;;;1.48;1.00;;;23.00;60.40;;;;;;31391447;28;20108;-42
2021/11/03 23:51:20;;;;;;;1.00;0.90;;;23.00;60.60;;;;;;31388922;28;20075;-36
